Sao Sebastiao, Brazil
Current Conditions -  °F | °C
As of 3:00 PM on Friday 21 Nov 2014 (Local Time) from SBMO Reporting Station
Scattered Clouds Scattered Clouds  
Wind Chill: 86°   Ceiling: Unl
Heat Index: 92°   Visibility: 6mi
Dew Point: 72°   Wind: 13mph
Humidity: 62%   Direction: 110°ESE
Pressure: 29.91"   Gusts: NA
Location:  9.93°S, 36.55°W
Report Text: SBMO 211800Z 11011KT 9999 SCT020 30/22 Q1013
Loading
Personal Weather Stations






























Interactive Weather Map New forecast layout! Learn more

10-Day Weather Forecast

Advertisements
Track Severe Weather on mobile